createdAt,value
2022-08-23T00:12:01.132Z,20.36
2022-08-23T00:27:33.535Z,20.21
2022-08-23T00:42:36.074Z,20.08
2022-08-23T00:57:52.009Z,19.84
2022-08-23T01:13:08.014Z,19.58
2022-08-23T01:28:24.950Z,19.35
2022-08-23T01:43:41.960Z,19.04
2022-08-23T01:58:58.895Z,18.82
2022-08-23T02:14:15.892Z,18.74
2022-08-23T02:29:33.128Z,18.6
2022-08-23T02:44:48.837Z,18.33
2022-08-23T03:00:04.767Z,18.22
2022-08-23T03:15:20.763Z,18.04
2022-08-23T03:30:37.713Z,17.92
2022-08-23T03:45:54.721Z,17.73
2022-08-23T04:01:11.724Z,17.61
2022-08-23T04:16:27.627Z,17.42
2022-08-23T04:31:44.634Z,17.41
2022-08-23T04:47:00.572Z,17.32
2022-08-23T05:02:16.577Z,17.15
2022-08-23T05:17:32.539Z,17.12
2022-08-23T05:32:50.482Z,18.25
2022-08-23T05:48:07.461Z,19.72
2022-08-23T06:03:24.416Z,20.44
2022-08-23T06:18:40.400Z,20.52
2022-08-23T06:33:57.420Z,20.4
2022-08-23T06:49:13.320Z,20.96
2022-08-23T07:04:29.293Z,21.14
2022-08-23T07:19:46.255Z,21.85
2022-08-23T07:35:05.262Z,22.29
2022-08-23T07:50:21.192Z,22.48
2022-08-23T08:05:37.159Z,22.95
2022-08-23T08:20:53.142Z,23.98
2022-08-23T08:36:11.134Z,24.24
2022-08-23T08:51:28.083Z,24.88
2022-08-23T09:06:45.019Z,25.13
2022-08-23T09:22:01.018Z,26
2022-08-23T09:37:17.985Z,26.28
2022-08-23T09:52:33.963Z,27.8
2022-08-23T10:07:49.926Z,27.91
2022-08-23T10:23:05.886Z,28.42
2022-08-23T10:38:22.862Z,28.38
2022-08-23T10:53:39.823Z,28.98
2022-08-23T11:08:56.787Z,29.99
2022-08-23T11:24:12.755Z,30.56
2022-08-23T11:39:30.736Z,30.32
2022-08-23T11:54:46.694Z,31.18
2022-08-23T12:10:03.669Z,32.59
2022-08-23T12:25:20.932Z,32.67
2022-08-23T12:40:37.591Z,32.96
2022-08-23T12:55:53.573Z,32.02
2022-08-23T13:11:09.536Z,32.75
2022-08-23T13:26:26.841Z,33.69
2022-08-23T13:41:42.471Z,33.83
2022-08-23T13:56:58.407Z,33.97
2022-08-23T14:12:15.415Z,34.09
2022-08-23T14:27:32.344Z,33.35
2022-08-23T14:42:50.358Z,35.17
2022-08-23T14:58:06.290Z,35.35
2022-08-23T15:13:32.422Z,34.58
2022-08-23T15:28:38.233Z,33.21
2022-08-23T15:43:55.233Z,33.87
2022-08-23T15:59:12.174Z,33.81
2022-08-23T16:14:29.175Z,33
2022-08-23T16:29:45.113Z,32.77
2022-08-23T16:45:02.175Z,32.06
2022-08-23T17:00:18.053Z,31.59
2022-08-23T17:15:34.050Z,30.78
2022-08-23T17:30:49.990Z,30.11
2022-08-23T17:46:07.057Z,29.5
2022-08-23T18:01:24.013Z,29.09
2022-08-23T18:16:40.909Z,28.81
2022-08-23T18:31:57.922Z,28.76
2022-08-23T18:47:14.838Z,28.4
2022-08-23T19:02:30.897Z,28.12
2022-08-23T19:17:46.764Z,27.52
2022-08-23T19:33:02.932Z,27.05
2022-08-23T19:48:19.698Z,26.54
2022-08-23T20:03:41.707Z,25.99
2022-08-23T20:18:53.650Z,25.53
2022-08-23T20:34:09.614Z,24.98
2022-08-23T20:49:26.577Z,24.56
2022-08-23T21:04:42.541Z,24.24
2022-08-23T21:19:58.520Z,23.83
2022-08-23T21:35:14.487Z,23.5
2022-08-23T21:50:31.456Z,23.21
2022-08-23T22:05:48.421Z,23.01
2022-08-23T22:21:05.424Z,22.74
2022-08-23T22:36:21.362Z,22.53
2022-08-23T22:51:39.363Z,22
2022-08-23T23:06:55.302Z,21.7
2022-08-23T23:22:11.298Z,21.53
2022-08-23T23:37:44.694Z,21.03
2022-08-23T23:52:45.227Z,21.06
